Time;durP1;ratioP1;P1;durP2;ratioP2;P2;SDS_P1;SDS_P2;PMS_P1;PMS_P2;Temp;Humidity;BMP_temperature;BMP_pressure;BME280_temperature;BME280_humidity;BME280_pressure;Samples;Min_cycle;Max_cycle;Signal;HPM_P1;HPM_P2
2024/01/21 00:01:49;;;;;;;0.77;0.77;;;;;;;-1.77;100.00;100633.38;5109839;28;20707;-56
2024/01/21 00:04:16;;;;;;;1.90;1.13;;;;;;;-1.81;100.00;100631.66;5109751;28;20506;-57
2024/01/21 00:06:44;;;;;;;2.57;0.80;;;;;;;-1.82;100.00;100630.84;5109795;28;20821;-56
2024/01/21 00:09:12;;;;;;;0.40;0.40;;;;;;;-1.90;100.00;100626.63;5109614;28;20493;-56
2024/01/21 00:11:38;;;;;;;1.60;0.50;;;;;;;-1.88;100.00;100635.84;5110078;28;20470;-57
2024/01/21 00:14:06;;;;;;;2.83;0.93;;;;;;;-1.72;100.00;100641.72;5109519;28;20447;-57
2024/01/21 00:16:33;;;;;;;0.53;0.53;;;;;;;-1.76;100.00;100639.22;5109622;28;20447;-57
2024/01/21 00:18:59;;;;;;;4.17;1.10;;;;;;;-1.87;100.00;100636.66;5109451;28;20462;-56
2024/01/21 00:21:26;;;;;;;0.73;0.73;;;;;;;-1.88;100.00;100630.81;5109849;28;20473;-56
2024/01/21 00:23:54;;;;;;;0.53;0.53;;;;;;;-2.01;100.00;100638.28;5108785;28;20933;-57
2024/01/21 00:26:21;;;;;;;1.93;1.10;;;;;;;-2.06;100.00;100631.59;5109421;28;20443;-56
2024/01/21 00:28:48;;;;;;;0.47;0.47;;;;;;;-2.02;100.00;100639.97;5109658;28;20470;-57
2024/01/21 00:31:15;;;;;;;2.27;0.97;;;;;;;-1.93;100.00;100636.66;5109361;28;20435;-56
2024/01/21 00:33:42;;;;;;;1.20;1.10;;;;;;;-1.98;100.00;100639.13;5109420;28;20439;-56
2024/01/21 00:36:11;;;;;;;1.37;0.73;;;;;;;-2.07;100.00;100634.09;5109407;28;20454;-56
2024/01/21 00:38:41;;;;;;;0.33;0.33;;;;;;;-2.02;100.00;100639.97;5109216;28;20197;-57
2024/01/21 00:41:13;;;;;;;0.73;0.70;;;;;;;-2.07;100.00;100644.94;5109034;28;20539;-56
2024/01/21 00:43:40;;;;;;;0.33;0.33;;;;;;;-2.12;100.00;100641.59;5109182;28;20509;-56
2024/01/21 00:46:07;;;;;;;0.80;0.53;;;;;;;-2.13;100.00;100632.38;5109523;28;20443;-56
2024/01/21 00:48:34;;;;;;;0.50;0.40;;;;;;;-2.19;100.00;100639.03;5108939;28;20450;-56
2024/01/21 00:51:01;;;;;;;1.13;0.77;;;;;;;-2.18;100.00;100640.72;5109054;28;20455;-56
2024/01/21 00:53:28;;;;;;;0.67;0.67;;;;;;;-2.17;100.00;100640.72;5109008;28;20797;-56
2024/01/21 00:55:55;;;;;;;1.00;0.87;;;;;;;-2.16;100.00;100639.06;5109353;28;20475;-56
2024/01/21 00:58:23;;;;;;;1.93;1.33;;;;;;;-2.14;100.00;100633.22;5109082;28;20446;-57
2024/01/21 01:00:50;;;;;;;1.53;0.93;;;;;;;-2.21;100.00;100641.56;5109444;28;20451;-56
2024/01/21 01:03:16;;;;;;;3.87;1.57;;;;;;;-2.20;100.00;100648.22;5108898;28;20447;-56
2024/01/21 01:05:43;;;;;;;0.30;0.30;;;;;;;-2.16;100.00;100649.91;5108883;28;20443;-57
2024/01/21 01:08:10;;;;;;;0.50;0.50;;;;;;;-2.12;100.00;100641.59;5108940;28;20451;-56
2024/01/21 01:10:37;;;;;;;1.40;0.83;;;;;;;-2.09;100.00;100641.63;5109096;28;20447;-57
2024/01/21 01:13:04;;;;;;;1.40;1.07;;;;;;;-2.16;100.00;100644.91;5108750;28;20447;-57
2024/01/21 01:15:32;;;;;;;0.60;0.60;;;;;;;-2.27;100.00;100636.50;5108841;28;20443;-57
2024/01/21 01:17:59;;;;;;;0.90;0.90;;;;;;;-2.33;100.00;100638.97;5108850;28;20490;-57
2024/01/21 01:20:26;;;;;;;0.97;0.57;;;;;;;-2.31;100.00;100644.84;5108948;28;20451;-57
2024/01/21 01:22:52;;;;;;;0.67;0.67;;;;;;;-2.29;100.00;100640.69;5108706;28;20454;-57
2024/01/21 01:25:19;;;;;;;0.40;0.40;;;;;;;-2.28;100.00;100639.84;5108710;28;20502;-56
2024/01/21 01:27:46;;;;;;;1.13;0.70;;;;;;;-2.27;100.00;100644.00;5108993;28;20451;-57
2024/01/21 01:30:13;;;;;;;0.50;0.50;;;;;;;-2.39;100.00;100638.94;5108910;28;20447;-57
2024/01/21 01:32:41;;;;;;;0.50;0.47;;;;;;;-2.36;100.00;100636.44;5108804;28;20451;-57
2024/01/21 01:35:08;;;;;;;1.53;1.17;;;;;;;-2.32;100.00;100643.16;5111639;28;20838;-57
2024/01/21 01:37:35;;;;;;;1.87;1.20;;;;;;;-2.29;100.00;100645.69;5112556;28;20951;-57
2024/01/21 01:40:03;;;;;;;0.87;0.50;;;;;;;-2.32;100.00;100644.00;5112604;27;20548;-56
2024/01/21 01:42:30;;;;;;;0.30;0.30;;;;;;;-2.31;100.00;100644.84;5112505;28;20483;-57
2024/01/21 01:44:57;;;;;;;0.57;0.57;;;;;;;-2.40;100.00;100642.28;5112565;28;20811;-56
2024/01/21 01:47:24;;;;;;;0.80;0.80;;;;;;;-2.40;100.00;100644.78;5112443;28;20455;-56
2024/01/21 01:49:55;;;;;;;0.60;0.60;;;;;;;-2.39;100.00;100641.44;5112655;28;20457;-56
2024/01/21 01:52:22;;;;;;;0.60;0.33;;;;;;;-2.45;100.00;100653.94;5112316;28;20845;-56
2024/01/21 01:54:49;;;;;;;0.70;0.70;;;;;;;-2.41;100.00;100643.13;5112386;28;20443;-57
2024/01/21 01:57:16;;;;;;;1.30;0.87;;;;;;;-2.38;100.00;100653.16;5112314;28;20447;-57
2024/01/21 01:59:43;;;;;;;6.10;0.80;;;;;;;-2.37;100.00;100649.81;5112274;28;20454;-57
2024/01/21 02:02:10;;;;;;;0.63;0.63;;;;;;;-2.32;100.00;100659.03;5112096;28;20442;-57
2024/01/21 02:04:38;;;;;;;0.37;0.37;;;;;;;-2.32;100.00;100660.69;5112178;28;20486;-57
2024/01/21 02:07:06;;;;;;;0.40;0.40;;;;;;;-2.51;100.00;100655.56;5111933;28;20458;-56
2024/01/21 02:09:33;;;;;;;0.37;0.37;;;;;;;-2.50;100.00;100658.94;5112212;28;20439;-56
2024/01/21 02:12:00;;;;;;;0.47;0.47;;;;;;;-2.49;100.00;100659.75;5111980;28;20454;-57
2024/01/21 02:14:26;;;;;;;0.73;0.73;;;;;;;-2.55;100.00;100656.38;5111956;28;20458;-56
2024/01/21 02:16:53;;;;;;;0.90;0.83;;;;;;;-2.54;100.00;100658.03;5111860;28;20960;-57
2024/01/21 02:19:26;;;;;;;0.43;0.43;;;;;;;-2.52;100.00;100663.91;5111885;28;20451;-56
2024/01/21 02:21:53;;;;;;;1.20;0.50;;;;;;;-2.49;100.00;100657.25;5111839;28;20447;-57
2024/01/21 02:24:21;;;;;;;1.60;0.83;;;;;;;-2.52;100.00;100651.41;5111976;28;20498;-57
2024/01/21 02:26:48;;;;;;;0.53;0.53;;;;;;;-2.57;100.00;100659.69;5111993;28;20477;-57
2024/01/21 02:29:15;;;;;;;2.27;1.47;;;;;;;-2.61;100.00;100658.84;5111712;28;20500;-57
2024/01/21 02:31:42;;;;;;;0.40;0.40;;;;;;;-2.66;100.00;100662.16;5111892;28;20451;-56
2024/01/21 02:34:09;;;;;;;0.60;0.60;;;;;;;-2.75;100.00;100665.44;5111870;28;20455;-57
2024/01/21 02:36:36;;;;;;;1.37;1.20;;;;;;;-2.79;100.00;100666.25;5111409;28;20956;-56
2024/01/21 02:39:02;;;;;;;0.70;0.50;;;;;;;-2.78;100.00;100668.75;5111491;27;20459;-56
2024/01/21 02:41:31;;;;;;;0.43;0.43;;;;;;;-2.76;100.00;100672.09;5111473;28;20451;-56
2024/01/21 02:43:59;;;;;;;0.60;0.60;;;;;;;-2.80;100.00;100677.06;5111314;27;20451;-57
2024/01/21 02:46:25;;;;;;;0.33;0.33;;;;;;;-2.79;100.00;100674.59;5110373;28;20436;-57
2024/01/21 02:48:52;;;;;;;0.20;0.20;;;;;;;-2.73;100.00;100681.31;5111374;28;20844;-57
2024/01/21 02:51:19;;;;;;;0.47;0.47;;;;;;;-2.71;100.00;100686.31;5111249;28;20501;-56
2024/01/21 02:53:46;;;;;;;0.17;0.17;;;;;;;-2.64;100.00;100686.38;5111201;28;20458;-57
2024/01/21 02:56:21;;;;;;;1.13;0.60;;;;;;;-2.63;100.00;100692.22;5111405;28;20439;-57
2024/01/21 02:58:49;;;;;;;0.80;0.80;;;;;;;-2.70;100.00;100696.34;5111148;28;20951;-57
2024/01/21 03:01:16;;;;;;;1.03;0.63;;;;;;;-2.71;100.00;100689.63;5111197;28;20479;-57
2024/01/21 03:03:43;;;;;;;1.40;1.23;;;;;;;-2.76;100.00;100689.63;5111087;28;20451;-57
2024/01/21 03:06:09;;;;;;;0.90;0.67;;;;;;;-2.79;100.00;100686.25;5111130;28;20494;-57
2024/01/21 03:08:36;;;;;;;0.93;0.70;;;;;;;-2.79;100.00;100681.25;5111126;28;20443;-56
2024/01/21 03:11:03;;;;;;;3.70;0.80;;;;;;;-2.79;100.00;100681.25;5110793;28;21101;-56
2024/01/21 03:13:30;;;;;;;0.47;0.43;;;;;;;-2.76;100.00;100681.28;5111071;28;20451;-56
2024/01/21 03:15:58;;;;;;;1.23;0.80;;;;;;;-2.79;100.00;100674.59;5110833;28;20455;-57
2024/01/21 03:18:25;;;;;;;1.27;1.03;;;;;;;-2.80;100.00;100677.06;5110862;28;20443;-56
2024/01/21 03:20:53;;;;;;;1.10;1.00;;;;;;;-2.79;100.00;100681.25;5110604;28;20963;-56
2024/01/21 03:23:19;;;;;;;0.50;0.50;;;;;;;-2.75;100.00;100687.94;5110693;28;20496;-56
2024/01/21 03:25:46;;;;;;;0.40;0.40;;;;;;;-2.72;100.00;100687.97;5110415;28;20494;-56
2024/01/21 03:28:13;;;;;;;0.50;0.50;;;;;;;-2.66;100.00;100688.00;5110849;28;20439;-57
2024/01/21 03:30:40;;;;;;;1.00;0.87;;;;;;;-2.67;100.00;100686.34;5110758;28;20451;-57
2024/01/21 03:33:08;;;;;;;0.70;0.70;;;;;;;-2.66;100.00;100683.00;5110386;28;20901;-56
2024/01/21 03:35:35;;;;;;;0.40;0.40;;;;;;;-2.66;100.00;100683.00;5110604;28;20448;-56
2024/01/21 03:38:02;;;;;;;0.73;0.73;;;;;;;-2.62;100.00;100679.72;5110361;28;20454;-56
2024/01/21 03:40:28;;;;;;;1.37;1.20;;;;;;;-2.71;100.00;100684.63;5110194;28;20838;-57
2024/01/21 03:42:55;;;;;;;0.53;0.53;;;;;;;-2.76;100.00;100686.28;5110205;28;20876;-57
2024/01/21 03:45:22;;;;;;;1.10;1.03;;;;;;;-2.76;100.00;100681.28;5110422;28;20483;-57
2024/01/21 03:47:49;;;;;;;0.30;0.30;;;;;;;-2.73;100.00;100688.81;5110193;28;20460;-56
2024/01/21 03:50:20;;;;;;;0.63;0.60;;;;;;;-2.71;100.00;100687.13;5110287;28;20447;-56
2024/01/21 03:52:46;;;;;;;0.50;0.50;;;;;;;-2.60;100.00;100678.03;5110097;28;20447;-56
2024/01/21 03:55:13;;;;;;;1.43;0.27;;;;;;;-2.57;100.00;100677.22;5109966;28;20992;-57
2024/01/21 03:57:40;;;;;;;1.50;1.03;;;;;;;-2.62;100.00;100681.34;5110257;28;20443;-57
2024/01/21 04:00:09;;;;;;;1.00;0.67;;;;;;;-2.59;100.00;100684.75;5109910;28;20980;-57
2024/01/21 04:02:35;;;;;;;1.20;1.10;;;;;;;-2.62;100.00;100689.72;5109662;28;20489;-56
2024/01/21 04:05:02;;;;;;;1.30;1.17;;;;;;;-2.59;100.00;100677.22;5109869;28;20514;-56
2024/01/21 04:07:31;;;;;;;1.07;0.70;;;;;;;-2.63;100.00;100678.03;5109740;28;20473;-56
2024/01/21 04:09:58;;;;;;;0.27;0.27;;;;;;;-2.59;100.00;100678.88;5109768;28;20443;-56
2024/01/21 04:12:25;;;;;;;0.77;0.77;;;;;;;-2.60;100.00;100680.53;5109770;28;20447;-56
2024/01/21 04:14:52;;;;;;;0.70;0.70;;;;;;;-2.58;100.00;100685.56;5109516;28;20454;-57
2024/01/21 04:17:20;;;;;;;1.97;0.97;;;;;;;-2.58;100.00;100683.91;5109597;28;20508;-56
2024/01/21 04:19:47;;;;;;;0.57;0.57;;;;;;;-2.59;100.00;100687.25;5109439;28;20456;-56
2024/01/21 04:22:14;;;;;;;0.57;0.57;;;;;;;-2.56;100.00;100688.91;5109728;28;20447;-57
2024/01/21 04:24:42;;;;;;;0.67;0.67;;;;;;;-2.56;100.00;100693.91;5109497;28;20486;-56
2024/01/21 04:27:09;;;;;;;1.00;0.87;;;;;;;-2.63;100.00;100693.03;5109579;28;20450;-57
2024/01/21 04:29:35;;;;;;;1.07;0.83;;;;;;;-2.65;100.00;100699.69;5109290;28;20450;-56
2024/01/21 04:32:02;;;;;;;0.40;0.40;;;;;;;-2.68;100.00;100704.69;5109168;28;20815;-56
2024/01/21 04:34:29;;;;;;;0.43;0.43;;;;;;;-2.72;100.00;100705.50;5109361;28;20527;-56
2024/01/21 04:36:56;;;;;;;1.27;1.17;;;;;;;-2.70;100.00;100708.84;5109842;28;20451;-56
2024/01/21 04:39:23;;;;;;;1.07;0.67;;;;;;;-2.68;100.00;100702.19;5109394;28;20465;-57
2024/01/21 04:41:51;;;;;;;1.47;0.93;;;;;;;-2.75;100.00;100713.81;5108931;28;20471;-57
2024/01/21 04:44:18;;;;;;;0.60;0.60;;;;;;;-2.61;100.00;100711.44;5109190;28;20966;-56
2024/01/21 04:46:44;;;;;;;0.47;0.47;;;;;;;-2.68;100.00;100713.84;5109061;28;20487;-57
2024/01/21 04:49:11;;;;;;;1.50;0.77;;;;;;;-2.59;100.00;100717.28;5109363;28;20455;-57
2024/01/21 04:51:38;;;;;;;0.20;0.20;;;;;;;-2.65;100.00;100712.22;5109340;28;20462;-56
2024/01/21 04:54:05;;;;;;;1.13;0.97;;;;;;;-2.68;100.00;100718.88;5109030;28;20964;-57
2024/01/21 04:56:33;;;;;;;1.50;0.70;;;;;;;-2.68;100.00;100724.72;5108854;28;20447;-57
2024/01/21 04:59:01;;;;;;;1.43;0.90;;;;;;;-2.71;100.00;100722.19;5108934;28;20831;-56
2024/01/21 05:01:28;;;;;;;3.13;1.27;;;;;;;-2.66;100.00;100727.25;5108897;28;20956;-56
2024/01/21 05:03:54;;;;;;;1.10;0.70;;;;;;;-2.73;100.00;100728.88;5108887;28;20459;-57
2024/01/21 05:06:21;;;;;;;2.00;0.80;;;;;;;-2.75;100.00;100728.00;5109063;28;20490;-56
2024/01/21 05:08:48;;;;;;;1.67;0.70;;;;;;;-2.70;100.00;100726.38;5108336;28;20459;-56
2024/01/21 05:11:15;;;;;;;1.70;1.00;;;;;;;-2.62;100.00;100732.28;5108858;28;20839;-57
2024/01/21 05:13:42;;;;;;;0.90;0.90;;;;;;;-2.61;100.00;100731.47;5109160;28;20450;-57
2024/01/21 05:16:10;;;;;;;0.57;0.57;;;;;;;-2.67;100.00;100730.56;5108700;28;20450;-56
2024/01/21 05:18:38;;;;;;;1.57;0.53;;;;;;;-2.58;100.00;100731.47;5108764;28;20447;-57
2024/01/21 05:21:05;;;;;;;2.20;1.30;;;;;;;-2.67;100.00;100728.91;5108733;28;20439;-56
2024/01/21 05:23:33;;;;;;;0.63;0.63;;;;;;;-2.77;100.00;100729.66;5108682;28;20965;-56
2024/01/21 05:26:00;;;;;;;0.63;0.60;;;;;;;-2.78;100.00;100722.97;5108776;28;20506;-56
2024/01/21 05:28:27;;;;;;;2.17;0.90;;;;;;;-2.80;100.00;100724.63;5108923;28;20454;-56
2024/01/21 05:30:54;;;;;;;1.03;0.97;;;;;;;-2.84;100.00;100728.75;5108633;28;20450;-56
2024/01/21 05:33:22;;;;;;;0.40;0.40;;;;;;;-2.80;100.00;100732.94;5108827;28;20482;-56
2024/01/21 05:35:49;;;;;;;0.33;0.33;;;;;;;-2.93;100.00;100733.69;5108547;28;20447;-57
2024/01/21 05:38:15;;;;;;;0.97;0.97;;;;;;;-2.86;100.00;100735.41;5108970;28;20462;-57
2024/01/21 05:40:42;;;;;;;0.20;0.20;;;;;;;-2.81;100.00;100733.78;5108852;28;20455;-57
2024/01/21 05:43:09;;;;;;;0.67;0.67;;;;;;;-2.86;100.00;100735.41;5108457;28;20462;-57
2024/01/21 05:45:36;;;;;;;1.23;0.87;;;;;;;-2.83;100.00;100742.09;5108463;28;20509;-56
2024/01/21 05:48:03;;;;;;;1.37;0.80;;;;;;;-2.85;100.00;100741.25;5108393;28;20451;-57
2024/01/21 05:50:31;;;;;;;0.30;0.30;;;;;;;-2.80;100.00;100744.63;5108777;28;20668;-56
2024/01/21 05:52:58;;;;;;;1.27;1.17;;;;;;;-2.85;100.00;100746.25;5108534;28;20443;-56
2024/01/21 05:55:25;;;;;;;0.30;0.30;;;;;;;-2.83;100.00;100752.13;5108519;28;20484;-56
2024/01/21 05:57:52;;;;;;;1.90;1.30;;;;;;;-2.87;100.00;100752.94;5108320;28;20914;-57
2024/01/21 06:00:19;;;;;;;0.27;0.27;;;;;;;-2.92;100.00;100749.53;5108525;28;20435;-57
2024/01/21 06:02:45;;;;;;;0.63;0.63;;;;;;;-2.89;100.00;100754.56;5108557;28;20451;-56
2024/01/21 06:05:13;;;;;;;0.60;0.60;;;;;;;-2.85;100.00;100761.25;5108191;28;20458;-57
2024/01/21 06:07:41;;;;;;;1.67;0.97;;;;;;;-2.79;100.00;100761.34;5108316;28;20447;-56
2024/01/21 06:10:08;;;;;;;0.23;0.23;;;;;;;-2.77;100.00;100765.53;5108187;28;20463;-57
2024/01/21 06:12:35;;;;;;;0.80;0.80;;;;;;;-2.81;100.00;100771.34;5108230;28;20453;-57
2024/01/21 06:15:02;;;;;;;1.07;0.97;;;;;;;-2.75;100.00;100778.91;5108261;28;20455;-57
2024/01/21 06:17:28;;;;;;;0.70;0.70;;;;;;;-2.67;100.00;100781.47;5108225;28;20450;-57
2024/01/21 06:19:55;;;;;;;0.23;0.23;;;;;;;-2.78;100.00;100773.03;5108279;28;20451;-57
2024/01/21 06:22:22;;;;;;;0.93;0.70;;;;;;;-2.81;100.00;100785.53;5111581;28;20451;-57
2024/01/21 06:24:50;;;;;;;1.13;0.77;;;;;;;-2.77;100.00;100784.72;5111762;28;20458;-56
2024/01/21 06:27:17;;;;;;;1.70;1.30;;;;;;;-2.81;100.00;100798.03;5111664;28;20494;-57
2024/01/21 06:29:44;;;;;;;0.93;0.70;;;;;;;-2.77;100.00;100804.72;5111747;27;20957;-56
2024/01/21 06:32:11;;;;;;;0.57;0.40;;;;;;;-2.77;100.00;100804.72;5111856;28;20495;-56
2024/01/21 06:34:38;;;;;;;0.57;0.57;;;;;;;-2.80;100.00;100809.72;5111812;28;20444;-56
2024/01/21 06:37:05;;;;;;;0.93;0.83;;;;;;;-2.80;100.00;100810.53;5111549;28;20443;-56
2024/01/21 06:39:32;;;;;;;0.57;0.57;;;;;;;-2.80;100.00;100804.72;5111578;28;20524;-56
2024/01/21 06:42:02;;;;;;;0.73;0.67;;;;;;;-2.80;100.00;100804.72;5111679;28;20462;-57
2024/01/21 06:44:29;;;;;;;0.87;0.87;;;;;;;-2.76;100.00;100812.28;5111724;28;20455;-57
2024/01/21 06:46:55;;;;;;;0.30;0.30;;;;;;;-2.86;100.00;100815.50;5111625;27;20490;-57
2024/01/21 06:49:22;;;;;;;0.90;0.80;;;;;;;-2.79;100.00;100811.41;5111313;28;20482;-56
2024/01/21 06:51:54;;;;;;;0.27;0.27;;;;;;;-2.76;100.00;100812.28;5111498;28;20957;-56
2024/01/21 06:54:21;;;;;;;0.70;0.70;;;;;;;-2.67;100.00;100816.53;5111774;28;20442;-56
2024/01/21 06:56:48;;;;;;;0.83;0.60;;;;;;;-2.65;100.00;100824.88;5111091;28;20474;-61
2024/01/21 06:59:16;;;;;;;0.37;0.37;;;;;;;-2.75;100.00;100815.63;5111141;28;20834;-56
2024/01/21 07:01:43;;;;;;;0.40;0.40;;;;;;;-2.80;100.00;100809.72;5111215;28;20447;-56
2024/01/21 07:04:10;;;;;;;0.77;0.53;;;;;;;-2.80;100.00;100820.56;5111070;28;20462;-57
2024/01/21 07:06:37;;;;;;;0.57;0.57;;;;;;;-2.67;100.00;100823.22;5110965;28;20497;-56
2024/01/21 07:09:04;;;;;;;0.73;0.50;;;;;;;-2.72;100.00;100823.16;5110862;28;20833;-57
2024/01/21 07:11:35;;;;;;;0.53;0.43;;;;;;;-2.62;100.00;100827.44;5110731;28;20451;-56
2024/01/21 07:14:03;;;;;;;0.80;0.73;;;;;;;-2.65;100.00;100824.88;5110981;28;20435;-57
2024/01/21 07:16:31;;;;;;;3.30;0.53;;;;;;;-2.69;100.00;100823.19;5110889;28;20549;-57
2024/01/21 07:18:58;;;;;;;0.67;0.67;;;;;;;-2.53;100.00;100829.16;5111035;28;20455;-56
2024/01/21 07:21:26;;;;;;;0.33;0.33;;;;;;;-2.52;100.00;100821.66;5110737;28;20447;-57
2024/01/21 07:23:53;;;;;;;0.40;0.40;;;;;;;-2.34;100.00;100831.00;5110731;28;20447;-57
2024/01/21 07:26:22;;;;;;;2.17;1.50;;;;;;;-2.42;100.00;100831.75;5110483;28;20501;-57
2024/01/21 07:28:49;;;;;;;1.47;1.37;;;;;;;-2.51;100.00;100833.34;5110657;28;20554;-56
2024/01/21 07:31:16;;;;;;;0.57;0.53;;;;;;;-2.46;100.00;100820.88;5110485;28;20446;-57
2024/01/21 07:33:44;;;;;;;0.60;0.60;;;;;;;-2.42;100.00;100831.75;5110500;28;20462;-56
2024/01/21 07:36:12;;;;;;;3.40;1.07;;;;;;;-2.33;100.00;100831.84;5110239;28;20451;-57
2024/01/21 07:38:38;;;;;;;0.10;0.10;;;;;;;-2.33;100.00;100836.84;5110581;27;20458;-56
2024/01/21 07:41:06;;;;;;;2.43;1.60;;;;;;;-2.34;100.00;100831.00;5110177;28;20463;-56
2024/01/21 07:43:32;;;;;;;0.23;0.23;;;;;;;-2.51;100.00;100838.38;5110319;28;20476;-56
2024/01/21 07:45:59;;;;;;;0.57;0.57;;;;;;;-2.39;100.00;100839.31;5109951;28;20490;-57
2024/01/21 07:48:26;;;;;;;0.67;0.67;;;;;;;-2.34;100.00;100831.00;5110383;28;20454;-57
2024/01/21 07:50:54;;;;;;;1.57;1.40;;;;;;;-2.24;100.00;100841.97;5110280;27;20467;-57
2024/01/21 07:53:21;;;;;;;2.60;1.33;;;;;;;-2.11;100.00;100838.72;5110636;28;20439;-57
2024/01/21 07:55:51;;;;;;;0.93;0.90;;;;;;;-2.06;100.00;100847.09;5110039;28;20952;-56
2024/01/21 07:58:19;;;;;;;4.73;1.40;;;;;;;-2.14;100.00;100851.22;5110509;28;20450;-57
2024/01/21 08:00:46;;;;;;;1.30;1.20;;;;;;;-2.06;100.00;100852.13;5110251;28;20512;-56
2024/01/21 08:03:13;;;;;;;0.93;0.63;;;;;;;-1.98;100.00;100849.66;5109879;28;20462;-57
2024/01/21 08:05:40;;;;;;;0.40;0.40;;;;;;;-2.10;100.00;100850.41;5109698;28;20479;-56
2024/01/21 08:08:08;;;;;;;1.40;0.60;;;;;;;-2.14;100.00;100852.88;5110088;28;20458;-57
2024/01/21 08:10:35;;;;;;;7.67;2.13;;;;;;;-2.25;100.00;100845.28;5109893;28;20447;-56
2024/01/21 08:13:01;;;;;;;0.93;0.93;;;;;;;-2.10;100.00;100845.38;5109690;28;20458;-56
2024/01/21 08:15:28;;;;;;;0.57;0.57;;;;;;;-1.97;100.00;100845.50;5109550;28;20448;-57
2024/01/21 08:17:55;;;;;;;0.40;0.37;;;;;;;-1.92;100.00;100843.84;5109953;28;20451;-57
2024/01/21 08:20:22;;;;;;;0.23;0.23;;;;;;;-1.84;100.00;100850.59;5109616;28;20466;-56
2024/01/21 08:22:49;;;;;;;2.63;0.60;;;;;;;-1.68;100.00;100859.06;5109636;28;20497;-57
2024/01/21 08:25:17;;;;;;;1.07;0.97;;;;;;;-1.57;100.00;100866.66;5109364;28;20475;-56
2024/01/21 08:27:44;;;;;;;0.30;0.30;;;;;;;-1.48;100.00;100863.38;5109412;28;21087;-57
2024/01/21 08:30:12;;;;;;;0.53;0.53;;;;;;;-1.52;100.00;100869.19;5109370;28;20455;-57
2024/01/21 08:32:38;;;;;;;1.47;0.93;;;;;;;-1.51;100.00;100873.34;5109311;28;20959;-57
2024/01/21 08:35:06;;;;;;;1.60;0.93;;;;;;;-1.46;100.00;100870.06;5109399;28;20446;-56
2024/01/21 08:37:33;;;;;;;1.40;1.10;;;;;;;-1.50;100.00;100872.56;5109294;28;20463;-57
2024/01/21 08:40:00;;;;;;;1.50;0.93;;;;;;;-1.26;100.00;100867.66;5109470;28;20483;-56
2024/01/21 08:42:28;;;;;;;1.67;0.90;;;;;;;-1.17;100.00;100862.66;5109341;28;20447;-57
2024/01/21 08:44:55;;;;;;;0.60;0.40;;;;;;;-1.16;100.00;100866.88;5108918;28;20193;-56
2024/01/21 08:47:22;;;;;;;1.00;0.90;;;;;;;-1.30;100.00;100862.63;5109173;28;20232;-56
2024/01/21 08:49:49;;;;;;;1.57;0.90;;;;;;;-1.05;100.00;100871.09;5109313;28;20984;-56
2024/01/21 08:52:16;;;;;;;2.20;1.07;;;;;;;-0.99;100.00;100876.13;5109097;28;20705;-56
2024/01/21 08:54:42;;;;;;;1.37;0.60;;;;;;;-0.95;100.00;100877.84;5109387;28;20201;-56
2024/01/21 08:57:11;;;;;;;0.73;0.73;;;;;;;-0.91;100.00;100879.50;5108983;28;20309;-56
2024/01/21 08:59:39;;;;;;;0.87;0.83;;;;;;;-0.79;100.00;100874.50;5108918;28;20766;-57
2024/01/21 09:02:06;;;;;;;2.77;1.20;;;;;;;-0.61;100.00;100877.91;5108900;28;20208;-57
2024/01/21 09:04:33;;;;;;;0.40;0.40;;;;;;;-0.48;100.00;100880.47;5109060;28;20201;-57
2024/01/21 09:07:00;;;;;;;0.80;0.70;;;;;;;-0.49;100.00;100877.97;5108856;28;20320;-55
2024/01/21 09:09:27;;;;;;;1.33;1.10;;;;;;;-0.36;100.00;100872.09;5108761;28;20197;-57
2024/01/21 09:11:56;;;;;;;0.77;0.30;;;;;;;-0.13;100.00;100871.28;5109144;28;20198;-57
2024/01/21 09:14:23;;;;;;;1.60;1.00;;;;;;;0.11;100.00;100875.47;5108842;28;20201;-56
2024/01/21 09:16:54;;;;;;;1.70;1.00;;;;;;;-0.18;100.00;100872.94;5109320;28;20201;-57
2024/01/21 09:19:20;;;;;;;1.73;1.00;;;;;;;-0.06;100.00;100877.97;5109061;28;20266;-56
2024/01/21 09:21:47;;;;;;;1.37;1.00;;;;;;;-0.08;100.00;100874.66;5108881;28;20244;-56
2024/01/21 09:24:14;;;;;;;1.13;1.03;;;;;;;-0.02;100.00;100864.59;5108826;28;20208;-56
2024/01/21 09:26:42;;;;;;;1.70;1.07;;;;;;;0.04;100.00;100869.59;5108627;28;20232;-56
2024/01/21 09:29:09;;;;;;;0.93;0.93;;;;;;;0.06;100.00;100862.91;5108806;28;20667;-57
2024/01/21 09:31:36;;;;;;;0.87;0.70;;;;;;;0.21;100.00;100860.38;5108651;28;20209;-57
2024/01/21 09:34:04;;;;;;;1.30;0.97;;;;;;;0.43;100.00;100853.59;5108651;28;20241;-56
2024/01/21 09:36:34;;;;;;;7.80;1.53;;;;;;;0.31;100.00;100857.84;5108562;28;20205;-56
2024/01/21 09:39:01;;;;;;;1.43;1.33;;;;;;;0.93;100.00;100859.31;5108593;28;20204;-57
2024/01/21 09:41:33;;;;;;;0.73;0.73;;;;;;;1.71;100.00;100860.56;5108922;28;20213;-57
2024/01/21 09:44:00;;;;;;;1.37;1.10;;;;;;;2.32;100.00;100865.06;5108738;28;20602;-56
2024/01/21 09:46:28;;;;;;;3.30;1.97;;;;;;;2.68;100.00;100865.56;5108362;28;20728;-57
2024/01/21 09:48:55;;;;;;;2.37;1.47;;;;;;;2.42;100.00;100874.25;5108515;28;20900;-57
2024/01/21 09:51:23;;;;;;;2.87;1.50;;;;;;;2.90;100.00;100874.53;5108596;28;20233;-56
2024/01/21 09:53:50;;;;;;;1.50;1.40;;;;;;;3.04;100.00;100871.03;5108721;28;20205;-56
2024/01/21 09:56:18;;;;;;;1.67;1.40;;;;;;;3.59;100.00;100882.91;5111972;28;20217;-57
2024/01/21 09:58:48;;;;;;;2.63;1.93;;;;;;;4.43;100.00;100884.06;5112429;28;20209;-56
2024/01/21 10:01:16;;;;;;;1.50;1.40;;;;;;;4.99;94.88;100881.31;5112476;28;20201;-57
2024/01/21 10:03:43;;;;;;;2.40;1.57;;;;;;;4.40;93.71;100883.28;5112373;28;20205;-57
2024/01/21 10:06:09;;;;;;;1.83;1.67;;;;;;;4.48;92.49;100881.44;5112062;28;20197;-57
2024/01/21 10:08:39;;;;;;;3.30;1.87;;;;;;;4.22;93.84;100877.69;5112243;27;20197;-57
2024/01/21 10:11:05;;;;;;;2.23;1.83;;;;;;;4.18;96.80;100885.34;5112111;28;20193;-57
2024/01/21 10:13:34;;;;;;;1.43;1.30;;;;;;;4.73;93.43;100875.06;5112092;28;20205;-57
2024/01/21 10:16:01;;;;;;;2.13;1.83;;;;;;;5.11;90.33;100881.03;5111898;28;20198;-57
2024/01/21 10:18:28;;;;;;;2.13;1.73;;;;;;;5.12;89.39;100867.53;5112135;28;20211;-57
2024/01/21 10:20:58;;;;;;;2.10;1.90;;;;;;;5.58;89.67;100871.56;5111971;28;20691;-57
2024/01/21 10:23:25;;;;;;;1.80;1.50;;;;;;;5.98;86.36;100870.66;5111982;28;20212;-58
2024/01/21 10:25:53;;;;;;;3.00;1.40;;;;;;;6.39;83.76;100876.38;5111804;28;20201;-57
2024/01/21 10:28:20;;;;;;;2.83;1.57;;;;;;;6.66;80.23;100874.84;5111771;28;20236;-57
2024/01/21 10:30:47;;;;;;;3.30;2.20;;;;;;;6.91;79.55;100879.22;5111725;28;20300;-58
2024/01/21 10:33:14;;;;;;;2.90;1.63;;;;;;;7.20;77.29;100874.13;5111989;28;20203;-57
2024/01/21 10:35:42;;;;;;;2.67;1.27;;;;;;;6.88;76.41;100864.06;5111989;28;20201;-57
2024/01/21 10:38:12;;;;;;;3.70;2.07;;;;;;;7.25;76.48;100868.91;5111637;28;20201;-58
2024/01/21 10:40:43;;;;;;;2.10;1.50;;;;;;;7.52;73.35;100872.31;5111481;28;20266;-58
2024/01/21 10:43:15;;;;;;;2.03;1.33;;;;;;;7.12;71.39;100860.78;5111440;28;20235;-58
2024/01/21 10:45:44;;;;;;;4.63;1.73;;;;;;;7.13;78.88;100859.94;5111781;28;20201;-58
2024/01/21 10:48:13;;;;;;;3.33;2.00;;;;;;;6.66;74.15;100863.81;5111629;28;20319;-58
2024/01/21 10:50:42;;;;;;;3.03;1.87;;;;;;;6.44;79.14;100854.25;5111452;28;20205;-58
2024/01/21 10:53:11;;;;;;;2.37;1.77;;;;;;;6.38;78.20;100854.41;5111477;28;20197;-58
2024/01/21 10:55:40;;;;;;;3.03;2.07;;;;;;;6.90;81.18;100849.59;5111436;28;20454;-58
2024/01/21 10:58:08;;;;;;;3.20;1.67;;;;;;;7.09;77.83;100845.63;5111085;28;20220;-58
2024/01/21 11:00:37;;;;;;;1.77;1.40;;;;;;;7.53;75.07;100852.78;5110984;28;20208;-58
2024/01/21 11:03:23;;;;;;;2.03;1.67;;;;;;;7.48;73.21;100853.78;5111054;28;20209;-59
2024/01/21 11:05:53;;;;;;;4.77;1.67;;;;;;;7.83;74.24;100846.72;5110860;28;20201;-59
2024/01/21 11:08:23;;;;;;;1.77;1.47;;;;;;;8.01;69.22;100844.47;5110322;28;20232;-59
2024/01/21 11:10:53;;;;;;;3.27;1.87;;;;;;;8.12;70.21;100847.47;5111119;28;20212;-59
2024/01/21 11:13:42;;;;;;;2.73;1.97;;;;;;;7.68;71.32;100847.22;5111032;28;20201;-59
2024/01/21 11:16:13;;;;;;;3.93;2.23;;;;;;;7.62;67.65;100844.84;5110774;28;20652;-59
2024/01/21 11:18:42;;;;;;;2.87;1.50;;;;;;;7.59;71.31;100839.88;5111012;28;20208;-59
2024/01/21 11:21:09;;;;;;;3.30;2.00;;;;;;;7.54;71.62;100849.38;5110752;28;20198;-59